createdAt,value
2023-05-05T00:02:04.070Z,100029.84
2023-05-05T00:04:33.804Z,100023.66
2023-05-05T00:07:03.476Z,100031.53
2023-05-05T00:09:33.205Z,100017.34
2023-05-05T00:12:03.039Z,100006.75
2023-05-05T00:14:32.794Z,100003.38
2023-05-05T00:17:05.380Z,100007.75
2023-05-05T00:19:35.226Z,100000.56
2023-05-05T00:22:04.873Z,99999.63
2023-05-05T00:24:34.578Z,99989.19
2023-05-05T00:27:04.876Z,99980.22
2023-05-05T00:29:34.984Z,99982.16
2023-05-05T00:32:08.071Z,99981.19
2023-05-05T00:34:37.776Z,99959.41
2023-05-05T00:37:07.445Z,99959.13
2023-05-05T00:39:37.165Z,99955.88
2023-05-05T00:42:07.036Z,99953.19
2023-05-05T00:44:42.412Z,99935.75
2023-05-05T00:47:16.103Z,99896.13
2023-05-05T00:49:46.349Z,99891.91
2023-05-05T00:52:16.117Z,99894.00
2023-05-05T00:54:45.818Z,99895.94
2023-05-05T00:57:15.534Z,99885.53
2023-05-05T00:59:45.269Z,99841.66
2023-05-05T01:02:17.637Z,99832.47
2023-05-05T01:04:47.381Z,99810.81
2023-05-05T01:07:24.488Z,99797.41
2023-05-05T01:10:07.592Z,99808.22
2023-05-05T01:12:55.465Z,99818.88
2023-05-05T01:15:32.199Z,99810.03
2023-05-05T01:18:12.883Z,99792.59
2023-05-05T01:20:47.188Z,99804.09
2023-05-05T01:23:36.813Z,99805.94
2023-05-05T01:26:24.899Z,99798.78
2023-05-05T01:29:06.271Z,99774.22
2023-05-05T01:31:54.888Z,99763.81
2023-05-05T01:34:28.033Z,99770.00
2023-05-05T01:37:01.631Z,99759.47
2023-05-05T01:39:35.301Z,99735.72
2023-05-05T01:42:09.410Z,99709.06
2023-05-05T01:44:39.861Z,99698.69
2023-05-05T01:47:12.494Z,99679.88
2023-05-05T01:49:43.859Z,99672.88
2023-05-05T01:52:14.114Z,99675.41
2023-05-05T01:54:44.159Z,99660.53
2023-05-05T01:57:14.701Z,99645.50
2023-05-05T01:59:44.525Z,99643.94
2023-05-05T02:02:18.106Z,99629.91
2023-05-05T02:04:48.033Z,99618.56
2023-05-05T02:07:18.636Z,99607.16
2023-05-05T02:09:49.216Z,99603.94
2023-05-05T02:12:19.647Z,99585.66
2023-05-05T02:14:50.085Z,99586.06
2023-05-05T02:17:25.077Z,99570.38
2023-05-05T02:19:55.198Z,99544.94
2023-05-05T02:22:24.968Z,99525.75
2023-05-05T02:24:54.657Z,99510.16
2023-05-05T02:27:26.444Z,99505.09
2023-05-05T02:30:00.790Z,99488.53
2023-05-05T02:32:36.745Z,99476.56
2023-05-05T02:35:12.110Z,99473.34
2023-05-05T02:37:48.193Z,99463.06
2023-05-05T02:40:22.817Z,99458.16
2023-05-05T02:42:55.274Z,99469.03
2023-05-05T02:45:30.599Z,99453.50
2023-05-05T02:48:04.980Z,99434.25
2023-05-05T02:50:43.092Z,99441.53
2023-05-05T02:53:33.918Z,99433.84
2023-05-05T02:56:11.545Z,99434.69
2023-05-05T02:58:52.283Z,99447.16
2023-05-05T03:05:16.189Z,99481.88
2023-05-05T03:07:54.766Z,99503.41
2023-05-05T03:10:33.008Z,99533.09
2023-05-05T03:13:07.084Z,99558.88
2023-05-05T03:15:45.587Z,99570.59
2023-05-05T03:18:18.023Z,99581.66
2023-05-05T03:20:57.020Z,99593.28
2023-05-05T03:23:27.624Z,99605.13
2023-05-05T03:26:02.233Z,99606.25
2023-05-05T03:28:37.045Z,99602.13
2023-05-05T03:31:15.636Z,99606.75
2023-05-05T03:33:46.133Z,99610.50
2023-05-05T03:36:18.796Z,99613.31
2023-05-05T03:38:49.139Z,99612.56
2023-05-05T03:41:20.240Z,99613.66
2023-05-05T03:43:50.387Z,99607.75
2023-05-05T03:46:20.360Z,99607.16
2023-05-05T03:48:51.758Z,99609.09
2023-05-05T03:51:24.235Z,99600.50
2023-05-05T03:53:54.736Z,99596.31
2023-05-05T03:56:25.265Z,99598.38
2023-05-05T03:58:55.538Z,99589.91
2023-05-05T04:01:25.956Z,99575.16
2023-05-05T04:03:56.446Z,99573.75
2023-05-05T04:06:28.777Z,99566.97
2023-05-05T04:08:58.705Z,99558.53
2023-05-05T04:11:29.135Z,99549.13
2023-05-05T04:14:00.042Z,99537.03
2023-05-05T04:16:32.012Z,99522.41
2023-05-05T04:19:02.269Z,99513.25
2023-05-05T04:21:35.861Z,99506.63
2023-05-05T04:24:06.425Z,99489.38
2023-05-05T04:26:36.192Z,99476.44
2023-05-05T04:29:06.023Z,99470.66
2023-05-05T04:31:36.694Z,99463.19
2023-05-05T04:34:06.458Z,99442.28
2023-05-05T04:36:38.888Z,99426.75
2023-05-05T04:39:12.292Z,99423.88
2023-05-05T04:41:42.255Z,99417.81
2023-05-05T04:44:12.518Z,99412.06
2023-05-05T04:46:42.298Z,99406.97
2023-05-05T04:49:12.095Z,99391.44
2023-05-05T04:51:46.693Z,99389.88
2023-05-05T04:54:16.635Z,99379.59
2023-05-05T04:56:46.746Z,99371.06
2023-05-05T04:59:16.668Z,99364.88
2023-05-05T05:01:46.872Z,99359.13
2023-05-05T05:04:18.715Z,99354.91
2023-05-05T05:06:51.360Z,99333.19
2023-05-05T05:09:21.180Z,99332.22
2023-05-05T05:11:51.160Z,99326.91
2023-05-05T05:14:20.824Z,99322.31
2023-05-05T05:16:52.592Z,99310.72
2023-05-05T05:19:24.649Z,99288.56
2023-05-05T05:21:57.217Z,99274.19
2023-05-05T05:24:27.633Z,99256.19
2023-05-05T05:26:57.409Z,99247.72
2023-05-05T05:29:27.548Z,99232.25
2023-05-05T05:31:58.372Z,99233.69
2023-05-05T05:34:28.252Z,99226.19
2023-05-05T05:37:01.412Z,99222.28
2023-05-05T05:39:31.411Z,99213.94
2023-05-05T05:42:01.188Z,99207.66
2023-05-05T05:44:31.031Z,99195.94
2023-05-05T05:47:00.795Z,99186.97
2023-05-05T05:49:31.014Z,99179.00
2023-05-05T05:52:03.328Z,99157.78
2023-05-05T05:54:34.584Z,99146.59
2023-05-05T05:57:07.015Z,99132.31
2023-05-05T05:59:37.101Z,99128.84
2023-05-05T06:02:07.985Z,99115.56
2023-05-05T06:04:37.965Z,99107.44
2023-05-05T06:07:10.295Z,99103.72
2023-05-05T06:09:40.234Z,99103.44
2023-05-05T06:12:10.114Z,99112.94
2023-05-05T06:14:39.929Z,99112.56
2023-05-05T06:17:09.917Z,99100.69
2023-05-05T06:19:41.162Z,99103.94
2023-05-05T06:22:13.932Z,99105.09
2023-05-05T06:24:43.755Z,99089.56
2023-05-05T06:27:13.532Z,99081.06
2023-05-05T06:29:43.229Z,99073.69
2023-05-05T06:32:14.121Z,99060.25
2023-05-05T06:34:44.745Z,99054.50
2023-05-05T06:37:16.990Z,99051.31
2023-05-05T06:39:46.963Z,99042.13
2023-05-05T06:42:16.607Z,99050.25
2023-05-05T06:44:46.461Z,99060.31
2023-05-05T06:47:16.286Z,99050.69
2023-05-05T06:49:46.024Z,99050.28
2023-05-05T06:52:18.497Z,99077.03
2023-05-05T06:54:48.238Z,99082.78
2023-05-05T06:57:17.932Z,99080.38
2023-05-05T06:59:47.582Z,99081.50
2023-05-05T07:02:17.349Z,99079.13
2023-05-05T07:04:47.260Z,99105.19
2023-05-05T07:07:19.605Z,99137.41
2023-05-05T07:09:50.038Z,99173.13
2023-05-05T07:12:19.735Z,99211.25
2023-05-05T07:14:49.563Z,99226.38
2023-05-05T07:17:19.241Z,99227.38
2023-05-05T07:19:48.899Z,99228.53
2023-05-05T07:22:21.250Z,99260.47
2023-05-05T07:24:53.390Z,99273.78
2023-05-05T07:27:23.405Z,99301.69
2023-05-05T07:29:53.175Z,99344.75
2023-05-05T07:32:22.969Z,99345.91
2023-05-05T07:34:52.698Z,99340.28
2023-05-05T07:37:25.002Z,99352.34
2023-05-05T07:39:54.736Z,99377.72
2023-05-05T07:42:24.393Z,99419.00
2023-05-05T07:44:54.098Z,99433.44
2023-05-05T07:47:24.176Z,99427.56
2023-05-05T07:49:53.873Z,99428.28
2023-05-05T07:52:43.695Z,99489.06
2023-05-05T07:55:16.316Z,99561.81
2023-05-05T07:57:46.189Z,99593.00
2023-05-05T08:00:19.466Z,99609.88
2023-05-05T08:02:49.331Z,99626.88
2023-05-05T08:05:19.310Z,99647.13
2023-05-05T08:07:51.590Z,99681.09
2023-05-05T08:10:22.039Z,99693.50
2023-05-05T08:12:51.885Z,99700.09
2023-05-05T08:15:21.771Z,99728.06
2023-05-05T08:17:53.316Z,99755.47
2023-05-05T08:20:23.541Z,99756.75
2023-05-05T08:22:55.801Z,99805.81
2023-05-05T08:25:27.047Z,99842.38
2023-05-05T08:27:57.045Z,99857.34
2023-05-05T08:30:27.423Z,99830.63
2023-05-05T08:32:57.161Z,99858.78
2023-05-05T08:35:26.859Z,99886.94
2023-05-05T08:37:59.416Z,99920.88
2023-05-05T08:40:33.030Z,99904.41
2023-05-05T08:43:02.886Z,99929.22
2023-05-05T08:45:32.900Z,99947.38
2023-05-05T08:48:04.629Z,99965.41
2023-05-05T08:50:35.078Z,99996.13
2023-05-05T08:53:12.379Z,99999.47
2023-05-05T08:55:49.040Z,99948.56
2023-05-05T08:58:19.966Z,99976.03
2023-05-05T09:00:49.735Z,100012.69
2023-05-05T09:03:20.304Z,100001.16
2023-05-05T09:05:50.210Z,100013.94
2023-05-05T09:08:23.003Z,100003.13
2023-05-05T09:10:54.392Z,100033.19
2023-05-05T09:13:24.305Z,100058.13
2023-05-05T09:15:53.973Z,100073.06
2023-05-05T09:18:24.133Z,100060.75
2023-05-05T09:20:53.878Z,100091.94
2023-05-05T09:23:26.297Z,100079.25
2023-05-05T09:26:09.044Z,100095.53
2023-05-05T09:28:38.936Z,100108.53
2023-05-05T09:31:16.257Z,100083.13
2023-05-05T09:33:46.396Z,100086.41
2023-05-05T09:36:16.036Z,100094.13
2023-05-05T09:39:07.569Z,100090.25
2023-05-05T09:41:42.203Z,100073.53
2023-05-05T09:44:12.451Z,100124.19
2023-05-05T09:46:42.409Z,100152.41
2023-05-05T09:49:19.378Z,100141.75
2023-05-05T09:51:49.426Z,100168.78
2023-05-05T09:54:29.972Z,100155.34
2023-05-05T09:57:00.229Z,100158.94
2023-05-05T09:59:29.909Z,100178.91
2023-05-05T10:02:13.794Z,100148.44
2023-05-05T10:04:43.774Z,100158.94
2023-05-05T10:07:25.762Z,100152.31
2023-05-05T10:09:58.082Z,100165.59
2023-05-05T10:12:28.512Z,100174.47
2023-05-05T10:14:59.273Z,100149.94
2023-05-05T10:17:31.586Z,100153.69
2023-05-05T10:20:03.999Z,100139.47
2023-05-05T10:22:36.886Z,100137.06
2023-05-05T10:25:13.697Z,100139.59
2023-05-05T10:27:46.900Z,100102.88
2023-05-05T10:30:20.675Z,100091.03
2023-05-05T10:33:04.070Z,100117.34
2023-05-05T10:35:39.991Z,100126.63
2023-05-05T10:38:11.798Z,100143.28
2023-05-05T10:40:46.572Z,100141.44
2023-05-05T10:43:16.811Z,100164.44
2023-05-05T10:45:46.995Z,100192.25
2023-05-05T10:48:24.027Z,100182.56
2023-05-05T10:50:56.521Z,100176.34
2023-05-05T10:53:28.908Z,100177.75
2023-05-05T10:56:05.615Z,100177.97
2023-05-05T10:58:46.886Z,100167.72
2023-05-05T11:01:32.799Z,100178.31
2023-05-05T11:04:21.220Z,100165.59
2023-05-05T11:07:20.838Z,100162.34
2023-05-05T11:09:58.410Z,100177.97
2023-05-05T11:12:30.988Z,100196.84
2023-05-05T11:15:38.169Z,100215.75
2023-05-05T11:18:09.016Z,100194.56
2023-05-05T11:21:18.216Z,100164.63
2023-05-05T11:23:50.095Z,100166.06
2023-05-05T11:26:20.743Z,100169.69
2023-05-05T11:29:06.768Z,100158.63
2023-05-05T11:31:36.665Z,100152.47
2023-05-05T11:34:28.877Z,100131.88
2023-05-05T11:37:01.504Z,100131.84
2023-05-05T11:39:39.412Z,100157.16
2023-05-05T11:42:30.448Z,100132.47
2023-05-05T11:45:03.012Z,100132.38
2023-05-05T11:47:34.234Z,100120.81
2023-05-05T11:50:21.767Z,100099.66
2023-05-05T11:52:51.828Z,100100.44
2023-05-05T11:55:26.139Z,100100.47
2023-05-05T11:57:56.111Z,100078.34
2023-05-05T12:00:37.253Z,100045.63
2023-05-05T12:03:07.471Z,100020.41
2023-05-05T12:05:37.422Z,100000.69
2023-05-05T12:08:07.662Z,99942.16
2023-05-05T12:10:37.873Z,99869.78
2023-05-05T12:13:07.718Z,99877.66
2023-05-05T12:15:39.994Z,99887.47
2023-05-05T12:18:20.972Z,99854.63
2023-05-05T12:20:51.403Z,99814.22
2023-05-05T12:23:21.108Z,99790.44
2023-05-05T12:25:50.970Z,99761.88
2023-05-05T12:28:20.640Z,99706.56
2023-05-05T12:31:01.515Z,99642.34
2023-05-05T12:33:31.667Z,99600.16
2023-05-05T12:36:01.369Z,99531.47
2023-05-05T12:38:31.154Z,99478.38
2023-05-05T12:41:01.025Z,99452.41
2023-05-05T12:43:32.734Z,99399.16
2023-05-05T12:46:10.211Z,99361.72
2023-05-05T12:48:40.890Z,99335.72
2023-05-05T12:51:18.669Z,99312.81
2023-05-05T12:53:48.735Z,99302.41
2023-05-05T12:56:38.486Z,99272.69
2023-05-05T12:59:09.432Z,99285.56
2023-05-05T13:01:51.593Z,99254.22
2023-05-05T13:04:23.111Z,99251.56
2023-05-05T13:07:11.815Z,99258.00
2023-05-05T13:09:41.623Z,99259.03
2023-05-05T13:12:12.182Z,99265.78
2023-05-05T13:14:42.329Z,99272.72
2023-05-05T13:17:15.003Z,99314.19
2023-05-05T13:19:46.648Z,99333.03
2023-05-05T13:22:16.625Z,99334.53
2023-05-05T13:24:52.479Z,99326.78
2023-05-05T13:27:22.946Z,99327.06
2023-05-05T13:29:52.655Z,99323.81
2023-05-05T13:32:25.019Z,99317.47
2023-05-05T13:34:54.779Z,99310.91
2023-05-05T13:37:24.540Z,99303.50
2023-05-05T13:39:57.294Z,99286.63
2023-05-05T13:42:27.133Z,99255.28
2023-05-05T13:44:56.903Z,99256.28
2023-05-05T13:47:29.458Z,99286.91
2023-05-05T13:49:59.132Z,99304.19
2023-05-05T13:52:29.866Z,99308.28
2023-05-05T13:55:01.430Z,99289.00
2023-05-05T13:57:31.617Z,99286.56
2023-05-05T14:00:01.293Z,99289.25
2023-05-05T14:02:33.538Z,99297.66
2023-05-05T14:05:03.304Z,99309.63
2023-05-05T14:07:33.112Z,99322.88
2023-05-05T14:10:02.863Z,99332.03
2023-05-05T14:12:32.567Z,99334.13
2023-05-05T14:15:02.251Z,99364.97
2023-05-05T14:17:34.714Z,99359.31
2023-05-05T14:20:04.614Z,99364.13
2023-05-05T14:22:34.337Z,99364.25
2023-05-05T14:25:03.968Z,99362.88
2023-05-05T14:27:33.637Z,99366.22
2023-05-05T14:30:03.355Z,99366.25
2023-05-05T14:32:35.658Z,99363.72
2023-05-05T14:35:05.777Z,99346.00
2023-05-05T14:37:36.177Z,99312.00
2023-05-05T14:40:06.842Z,99283.56
2023-05-05T14:42:37.725Z,99270.53
2023-05-05T14:45:09.658Z,99280.78
2023-05-05T14:47:42.189Z,99291.63
2023-05-05T14:50:14.266Z,99299.31
2023-05-05T14:52:44.649Z,99297.81
2023-05-05T14:55:14.416Z,99295.97
2023-05-05T14:57:44.057Z,99291.31
2023-05-05T15:00:14.551Z,99282.72
2023-05-05T15:02:48.519Z,99285.25
2023-05-05T15:05:18.510Z,99305.81
2023-05-05T15:07:48.240Z,99313.81
2023-05-05T15:10:19.724Z,99347.38
2023-05-05T15:12:51.874Z,99371.03
2023-05-05T15:15:21.703Z,99384.47
2023-05-05T15:17:54.044Z,99363.00
2023-05-05T15:20:23.852Z,99350.22
2023-05-05T15:22:55.006Z,99340.00
2023-05-05T15:25:25.814Z,99339.72
2023-05-05T15:27:56.109Z,99328.91
2023-05-05T15:30:26.989Z,99366.38
2023-05-05T15:32:59.548Z,99376.03
2023-05-05T15:35:29.452Z,99364.94
2023-05-05T15:37:59.226Z,99346.69
2023-05-05T15:40:29.024Z,99340.97
2023-05-05T15:42:58.752Z,99351.47
2023-05-05T15:45:28.826Z,99355.66
2023-05-05T15:48:01.188Z,99376.66
2023-05-05T15:50:31.120Z,99426.66
2023-05-05T15:53:00.918Z,99453.53
2023-05-05T15:55:30.928Z,99491.31
2023-05-05T15:58:00.704Z,99509.72
2023-05-05T16:00:31.521Z,99519.72
2023-05-05T16:03:03.944Z,99513.94
2023-05-05T16:05:33.752Z,99517.59
2023-05-05T16:08:09.659Z,99510.69
2023-05-05T16:10:39.732Z,99522.56
2023-05-05T16:13:09.590Z,99520.50
2023-05-05T16:15:39.328Z,99515.91
2023-05-05T16:18:11.708Z,99500.03
2023-05-05T16:20:41.465Z,99493.19
2023-05-05T16:23:11.129Z,99474.69
2023-05-05T16:25:40.812Z,99463.34
2023-05-05T16:28:10.514Z,99453.69
2023-05-05T16:30:42.873Z,99430.94
2023-05-05T16:33:15.202Z,99416.94
2023-05-05T16:35:46.526Z,99401.22
2023-05-05T16:38:16.830Z,99390.53
2023-05-05T16:40:46.490Z,99376.66
2023-05-05T16:43:16.252Z,99368.84
2023-05-05T16:45:46.627Z,99366.28
2023-05-05T16:48:18.984Z,99355.22
2023-05-05T16:50:48.744Z,99352.28
2023-05-05T16:53:18.728Z,99358.44
2023-05-05T16:55:48.544Z,99346.31
2023-05-05T16:58:18.336Z,99334.56
2023-05-05T17:00:49.206Z,99332.81
2023-05-05T17:03:22.518Z,99321.38
2023-05-05T17:05:53.102Z,99322.59
2023-05-05T17:08:23.019Z,99318.06
2023-05-05T17:10:52.754Z,99319.84
2023-05-05T17:13:23.181Z,99306.78
2023-05-05T17:15:53.299Z,99286.91
2023-05-05T17:18:26.079Z,99273.56
2023-05-05T17:20:55.848Z,99272.56
2023-05-05T17:23:25.562Z,99271.69
2023-05-05T17:25:55.236Z,99258.16
2023-05-05T17:28:24.847Z,99223.19
2023-05-05T17:30:54.523Z,99198.69
2023-05-05T17:33:26.983Z,99182.03
2023-05-05T17:35:57.459Z,99156.56
2023-05-05T17:38:27.274Z,99138.97
2023-05-05T17:40:56.964Z,99109.84
2023-05-05T17:43:26.752Z,99076.69
2023-05-05T17:45:56.552Z,99055.28
2023-05-05T17:48:29.114Z,99049.22
2023-05-05T17:50:58.997Z,99019.16
2023-05-05T17:53:29.273Z,99008.97
2023-05-05T17:55:58.954Z,98992.88
2023-05-05T17:58:28.673Z,98972.47
2023-05-05T18:00:58.381Z,98943.25
2023-05-05T18:03:32.884Z,98924.94
2023-05-05T18:06:02.828Z,98902.59
2023-05-05T18:08:32.622Z,98888.88
2023-05-05T18:11:02.352Z,98882.84
2023-05-05T18:13:32.062Z,98858.97
2023-05-05T18:16:01.854Z,98850.00
2023-05-05T18:18:34.194Z,98837.84
2023-05-05T18:21:04.084Z,98836.88
2023-05-05T18:23:33.757Z,98825.13
2023-05-05T18:26:03.456Z,98810.88
2023-05-05T18:28:33.190Z,98811.00
2023-05-05T18:31:02.861Z,98806.81
2023-05-05T18:33:35.161Z,98798.16
2023-05-05T18:36:05.869Z,98794.38
2023-05-05T18:38:35.589Z,98789.19
2023-05-05T18:41:05.284Z,98789.63
2023-05-05T18:43:35.139Z,98769.06
2023-05-05T18:46:04.932Z,98755.50
2023-05-05T18:48:37.195Z,98729.41
2023-05-05T18:51:07.658Z,98713.03
2023-05-05T18:53:37.360Z,98706.75
2023-05-05T18:56:07.179Z,98683.16
2023-05-05T18:58:36.892Z,98663.91
2023-05-05T19:01:06.628Z,98644.34
2023-05-05T19:03:39.284Z,98627.72
2023-05-05T19:06:09.451Z,98613.72
2023-05-05T19:08:39.097Z,98607.44
2023-05-05T19:11:08.873Z,98612.34
2023-05-05T19:16:08.403Z,98609.44
2023-05-05T19:18:41.179Z,98608.59
2023-05-05T19:21:13.447Z,98613.31
2023-05-05T19:23:43.175Z,98617.09
2023-05-05T19:26:12.889Z,98629.91
2023-05-05T19:28:42.546Z,98640.25
2023-05-05T19:31:12.326Z,98642.31
2023-05-05T19:33:45.789Z,98649.59
2023-05-05T19:36:15.735Z,98657.09
2023-05-05T19:38:46.781Z,98653.78
2023-05-05T19:41:17.975Z,98668.28
2023-05-05T19:43:50.014Z,98678.31
2023-05-05T19:46:19.800Z,98685.72
2023-05-05T19:48:52.265Z,98703.69
2023-05-05T19:51:22.022Z,98708.00
2023-05-05T19:53:51.712Z,98709.94
2023-05-05T19:56:21.751Z,98711.44
2023-05-05T19:58:59.121Z,98715.31
2023-05-05T20:01:29.509Z,98726.22
2023-05-05T20:04:03.397Z,98727.56
2023-05-05T20:06:33.159Z,98740.25
2023-05-05T20:09:02.905Z,98738.13
2023-05-05T20:11:32.970Z,98743.00
2023-05-05T20:14:02.852Z,98745.06
2023-05-05T20:16:33.630Z,98748.13
2023-05-05T20:19:06.205Z,98741.38
2023-05-05T20:21:37.020Z,98737.34
2023-05-05T20:24:07.602Z,98738.56
2023-05-05T20:26:37.245Z,98740.75
2023-05-05T20:29:06.954Z,98737.66
2023-05-05T20:31:36.729Z,98738.16
2023-05-05T20:34:09.006Z,98732.41
2023-05-05T20:36:38.828Z,98730.00
2023-05-05T20:39:08.542Z,98725.91
2023-05-05T20:41:40.580Z,98725.34
2023-05-05T20:44:10.487Z,98724.03
2023-05-05T20:46:40.338Z,98722.50
2023-05-05T20:49:12.597Z,98717.72
2023-05-05T20:51:42.384Z,98719.94
2023-05-05T20:54:12.325Z,98721.13
2023-05-05T20:56:44.702Z,98710.94
2023-05-05T20:59:14.498Z,98704.06
2023-05-05T21:01:44.316Z,98701.00
2023-05-05T21:04:16.675Z,98703.03
2023-05-05T21:06:46.397Z,98700.06
2023-05-05T21:09:16.819Z,98700.19
2023-05-05T21:11:46.610Z,98701.41
2023-05-05T21:14:16.256Z,98712.50
2023-05-05T21:16:46.066Z,98700.47
2023-05-05T21:19:18.492Z,98705.31
2023-05-05T21:21:48.334Z,98710.72
2023-05-05T21:24:18.250Z,98710.81
2023-05-05T21:26:48.688Z,98708.81
2023-05-05T21:29:18.589Z,98712.81
2023-05-05T21:31:48.276Z,98713.03
2023-05-05T21:34:20.664Z,98708.97
2023-05-05T21:36:50.391Z,98702.09
2023-05-05T21:39:20.070Z,98692.75
2023-05-05T21:41:49.714Z,98689.53
2023-05-05T21:44:19.438Z,98695.19
2023-05-05T21:46:49.247Z,98686.91
2023-05-05T21:49:22.117Z,98687.16
2023-05-05T21:51:52.665Z,98678.75
2023-05-05T21:54:22.353Z,98678.88
2023-05-05T21:56:52.013Z,98677.31
2023-05-05T21:59:21.694Z,98673.09
2023-05-05T22:01:51.940Z,98675.16
2023-05-05T22:04:24.470Z,98659.31
2023-05-05T22:06:54.296Z,98651.38
2023-05-05T22:09:23.982Z,98654.34
2023-05-05T22:11:53.757Z,98651.34
2023-05-05T22:14:23.821Z,98653.41
2023-05-05T22:16:53.529Z,98654.50
2023-05-05T22:19:25.970Z,98660.75
2023-05-05T22:21:56.027Z,98663.59
2023-05-05T22:24:25.884Z,98667.34
2023-05-05T22:26:57.504Z,98680.66
2023-05-05T22:29:27.775Z,98681.63
2023-05-05T22:31:57.567Z,98677.53
2023-05-05T22:34:29.993Z,98678.75
2023-05-05T22:36:59.897Z,98670.19
2023-05-05T22:39:29.545Z,98673.94
2023-05-05T22:41:59.174Z,98663.50
2023-05-05T22:44:28.857Z,98657.34
2023-05-05T22:46:58.750Z,98648.59
2023-05-05T22:49:31.812Z,98640.78
2023-05-05T22:52:02.310Z,98646.06
2023-05-05T22:54:31.937Z,98644.66
2023-05-05T22:57:02.383Z,98635.97
2023-05-05T22:59:32.082Z,98630.97
2023-05-05T23:02:01.705Z,98629.41
2023-05-05T23:04:34.107Z,98632.25
2023-05-05T23:07:03.896Z,98638.38
2023-05-05T23:09:33.592Z,98636.69
2023-05-05T23:12:03.498Z,98640.31
2023-05-05T23:14:33.159Z,98630.84
2023-05-05T23:17:02.836Z,98628.44
2023-05-05T23:19:35.137Z,98629.50
2023-05-05T23:22:05.466Z,98629.75
2023-05-05T23:24:35.206Z,98630.72
2023-05-05T23:27:04.859Z,98636.09
2023-05-05T23:29:34.911Z,98632.84
2023-05-05T23:32:04.587Z,98640.88
2023-05-05T23:34:36.882Z,98641.09
2023-05-05T23:37:06.659Z,98646.50
2023-05-05T23:39:36.946Z,98636.06
2023-05-05T23:42:06.719Z,98644.22
2023-05-05T23:44:36.644Z,98629.38
2023-05-05T23:47:07.237Z,98631.03
2023-05-05T23:49:39.566Z,98623.25
2023-05-05T23:52:09.259Z,98628.53
2023-05-05T23:54:38.863Z,98628.53
2023-05-05T23:57:08.651Z,98624.31
2023-05-05T23:59:38.364Z,98611.25
